Time;durP1;ratioP1;P1;durP2;ratioP2;P2;SDS_P1;SDS_P2;PMS_P1;PMS_P2;Temp;Humidity;BMP_temperature;BMP_pressure;BME280_temperature;BME280_humidity;BME280_pressure;Samples;Min_cycle;Max_cycle;Signal;HPM_P1;HPM_P2
2021/10/13 00:01:24;;;;;;;10.90;6.55;;;6.00;99.90;;;;;;5069876;28;20074;-46
2021/10/13 00:03:50;;;;;;;11.10;6.70;;;6.00;99.90;;;;;;5069912;28;20398;-47
2021/10/13 00:06:15;;;;;;;10.15;7.00;;;6.00;99.90;;;;;;5069736;28;20231;-45
2021/10/13 00:08:41;;;;;;;12.07;6.97;;;6.00;99.90;;;;;;5069424;28;20041;-46
2021/10/13 00:11:06;;;;;;;12.77;8.52;;;6.00;99.90;;;;;;5069552;28;20578;-46
2021/10/13 00:13:32;;;;;;;10.57;7.70;;;6.00;99.90;;;;;;5069553;28;20031;-47
2021/10/13 00:15:58;;;;;;;14.90;8.68;;;6.10;99.90;;;;;;5069503;28;20125;-46
2021/10/13 00:18:24;;;;;;;15.38;8.70;;;6.10;99.90;;;;;;5068642;28;20028;-48
2021/10/13 00:20:49;;;;;;;15.60;8.80;;;6.20;99.90;;;;;;5069165;28;20086;-46
2021/10/13 00:23:15;;;;;;;17.33;9.63;;;6.20;99.90;;;;;;5069234;28;20506;-48
2021/10/13 00:25:40;;;;;;;22.42;9.95;;;6.20;99.90;;;;;;5069355;28;20043;-46
2021/10/13 00:28:06;;;;;;;21.70;11.23;;;6.30;99.90;;;;;;5068526;28;20682;-46
2021/10/13 00:30:31;;;;;;;22.52;11.63;;;6.30;99.90;;;;;;5069096;28;20044;-46
2021/10/13 00:32:58;;;;;;;22.08;11.85;;;6.30;99.90;;;;;;5069281;28;20378;-47
2021/10/13 00:35:23;;;;;;;21.45;11.07;;;6.30;99.90;;;;;;5069199;28;20040;-48
2021/10/13 00:37:49;;;;;;;19.60;11.60;;;6.30;99.90;;;;;;5067938;28;20429;-46
2021/10/13 00:40:14;;;;;;;25.75;11.38;;;6.30;99.90;;;;;;5068924;28;20115;-49
2021/10/13 00:42:40;;;;;;;39.40;11.85;;;6.30;99.90;;;;;;5068941;28;20684;-48
2021/10/13 00:45:06;;;;;;;17.65;10.00;;;6.30;99.90;;;;;;5069372;28;20528;-48
2021/10/13 00:47:33;;;;;;;26.35;10.43;;;6.30;99.90;;;;;;5068560;28;20577;-47
2021/10/13 00:49:59;;;;;;;16.85;10.38;;;6.30;99.90;;;;;;5068237;28;20089;-49
2021/10/13 00:52:25;;;;;;;25.65;10.73;;;6.20;99.90;;;;;;5068836;28;20656;-46
2021/10/13 00:54:50;;;;;;;16.98;10.35;;;6.20;99.90;;;;;;5068994;28;20070;-46
2021/10/13 00:57:16;;;;;;;19.00;11.68;;;6.20;99.90;;;;;;5068495;28;20032;-47
2021/10/13 00:59:42;;;;;;;17.65;10.88;;;6.20;99.90;;;;;;5068689;28;20120;-46
2021/10/13 01:02:15;;;;;;;22.02;10.35;;;6.20;99.90;;;;;;5050709;28;20045;-47
2021/10/13 01:04:59;;;;;;;20.10;11.18;;;6.20;99.90;;;;;;5068434;28;20177;-47
2021/10/13 01:07:50;;;;;;;15.85;9.77;;;6.20;99.90;;;;;;5067079;28;20497;-46
2021/10/13 01:10:30;;;;;;;15.38;9.82;;;6.20;99.90;;;;;;5048584;28;20037;-47
2021/10/13 01:13:10;;;;;;;15.80;9.93;;;6.10;99.90;;;;;;5048811;28;20032;-48
2021/10/13 01:15:56;;;;;;;19.13;10.77;;;6.20;99.90;;;;;;5048843;28;20055;-46
2021/10/13 01:18:38;;;;;;;16.83;10.25;;;6.20;99.90;;;;;;5047841;28;20025;-47
2021/10/13 01:21:48;;;;;;;14.07;10.27;;;6.10;99.90;;;;;;5048425;28;20048;-47
2021/10/13 01:24:33;;;;;;;14.27;9.97;;;6.10;99.90;;;;;;5048729;28;20033;-47
2021/10/13 01:27:22;;;;;;;22.05;11.07;;;6.10;99.90;;;;;;5048127;28;20094;-47
2021/10/13 01:29:49;;;;;;;16.23;10.00;;;6.10;99.90;;;;;;5030265;28;20033;-47
2021/10/13 01:32:22;;;;;;;19.27;11.90;;;6.10;99.90;;;;;;5048237;28;20029;-46
2021/10/13 01:34:50;;;;;;;20.40;12.40;;;6.10;99.90;;;;;;5048049;28;20032;-47
2021/10/13 01:37:24;;;;;;;20.00;11.50;;;6.10;99.90;;;;;;5062388;28;20680;-46
2021/10/13 01:39:52;;;;;;;18.38;11.25;;;6.10;99.90;;;;;;5068336;28;20089;-48
2021/10/13 01:42:19;;;;;;;18.77;12.13;;;6.10;99.90;;;;;;5050474;28;20033;-46
2021/10/13 01:44:48;;;;;;;22.63;12.75;;;6.10;99.90;;;;;;5068231;28;20040;-46
2021/10/13 01:47:17;;;;;;;25.90;13.98;;;6.10;99.90;;;;;;5067951;28;20047;-47
2021/10/13 01:49:44;;;;;;;17.45;11.40;;;6.00;99.90;;;;;;5050124;28;20515;-48
2021/10/13 01:52:11;;;;;;;20.60;12.55;;;6.00;99.90;;;;;;5067769;28;20044;-47
2021/10/13 01:54:39;;;;;;;18.92;11.13;;;5.90;99.90;;;;;;5068172;28;20031;-46
2021/10/13 01:57:06;;;;;;;26.38;12.90;;;6.00;99.90;;;;;;5067435;28;20037;-46
2021/10/13 01:59:32;;;;;;;25.75;12.02;;;5.90;99.90;;;;;;5068119;28;20055;-46
2021/10/13 02:01:59;;;;;;;28.65;13.38;;;6.00;99.90;;;;;;5070075;28;20094;-45
2021/10/13 02:04:25;;;;;;;28.70;12.65;;;6.00;99.90;;;;;;5071973;28;20042;-46
2021/10/13 02:06:52;;;;;;;33.08;13.10;;;5.80;99.90;;;;;;5071639;28;20037;-48
2021/10/13 02:09:23;;;;;;;22.42;12.40;;;5.80;99.90;;;;;;5071273;28;20028;-47
2021/10/13 02:11:48;;;;;;;28.05;13.98;;;5.90;99.90;;;;;;5071861;28;20054;-45
2021/10/13 02:14:17;;;;;;;21.13;13.05;;;5.80;99.90;;;;;;5071894;28;20037;-47
2021/10/13 02:16:47;;;;;;;21.83;12.45;;;5.80;99.90;;;;;;5071789;28;20021;-49
2021/10/13 02:19:15;;;;;;;23.15;13.68;;;5.80;99.90;;;;;;5070994;28;20108;-48
2021/10/13 02:21:46;;;;;;;24.98;13.07;;;5.90;99.90;;;;;;5071528;28;20078;-47
2021/10/13 02:24:14;;;;;;;;;;;5.90;99.90;;;;;;5072221;28;20153;-48
2021/10/13 02:26:46;;;;;;;24.75;14.02;;;5.90;99.90;;;;;;5071690;28;19905;-46
2021/10/13 02:29:16;;;;;;;64.70;15.75;;;6.00;99.90;;;;;;5070666;28;20056;-49
2021/10/13 02:31:42;;;;;;;;;;;5.90;99.90;;;;;;5071983;28;20075;-49
2021/10/13 02:34:10;;;;;;;27.95;14.30;;;5.90;99.90;;;;;;5071399;28;19909;-46
2021/10/13 02:36:35;;;;;;;22.17;13.55;;;5.90;99.90;;;;;;5070795;28;20487;-46
2021/10/13 02:39:02;;;;;;;25.98;14.52;;;5.90;99.90;;;;;;5070608;28;20032;-46
2021/10/13 02:41:28;;;;;;;25.38;14.32;;;5.90;99.90;;;;;;5071123;28;20044;-47
2021/10/13 02:43:53;;;;;;;23.80;14.43;;;5.90;99.90;;;;;;5071240;28;20051;-49
2021/10/13 02:46:37;;;;;;;31.25;14.63;;;5.80;99.90;;;;;;5071087;28;20131;-46
2021/10/13 02:49:22;;;;;;;25.10;14.30;;;5.90;99.90;;;;;;5070587;28;20031;-46
2021/10/13 02:52:01;;;;;;;26.08;15.00;;;5.90;99.90;;;;;;5070838;28;20247;-46
2021/10/13 02:54:35;;;;;;;26.40;14.43;;;5.90;99.90;;;;;;5071215;28;20393;-47
2021/10/13 02:57:03;;;;;;;28.80;15.77;;;5.90;99.90;;;;;;5070811;28;20048;-47
2021/10/13 02:59:36;;;;;;;24.45;13.95;;;5.90;99.90;;;;;;5071105;28;20379;-47
2021/10/13 03:02:06;;;;;;;26.95;14.32;;;6.00;99.90;;;;;;5071086;28;20033;-46
2021/10/13 03:04:38;;;;;;;21.30;13.63;;;6.00;99.90;;;;;;5071330;28;20040;-47
2021/10/13 03:07:08;;;;;;;34.70;15.05;;;6.00;99.90;;;;;;5068440;28;20048;-46
2021/10/13 03:09:36;;;;;;;24.73;14.90;;;5.90;99.90;;;;;;5068967;28;20044;-48
2021/10/13 03:12:03;;;;;;;30.63;13.85;;;6.00;99.90;;;;;;5069983;28;20405;-49
2021/10/13 03:14:31;;;;;;;24.35;14.25;;;6.00;99.90;;;;;;5069348;28;20037;-46
2021/10/13 03:16:57;;;;;;;24.38;13.90;;;6.00;99.90;;;;;;5069762;28;20033;-46
2021/10/13 03:19:26;;;;;;;24.70;14.30;;;6.00;99.90;;;;;;5069845;28;20494;-47
2021/10/13 03:21:53;;;;;;;32.67;15.63;;;6.00;99.90;;;;;;5069986;28;20048;-46
2021/10/13 03:24:19;;;;;;;25.83;14.70;;;6.00;99.90;;;;;;5070312;28;20494;-46
2021/10/13 03:26:46;;;;;;;38.25;16.55;;;6.00;99.90;;;;;;5069702;28;20071;-47
2021/10/13 03:29:12;;;;;;;27.63;15.38;;;6.00;99.90;;;;;;5069996;28;20328;-45
2021/10/13 03:31:38;;;;;;;32.08;16.30;;;6.00;99.90;;;;;;5069982;28;20127;-46
2021/10/13 03:34:03;;;;;;;28.10;15.77;;;6.00;99.90;;;;;;5069705;28;20113;-46
2021/10/13 03:36:40;;;;;;;56.85;16.90;;;6.00;99.90;;;;;;5069401;28;20050;-49
2021/10/13 03:39:06;;;;;;;39.42;15.70;;;6.00;99.90;;;;;;5045936;28;20456;-45
2021/10/13 03:41:32;;;;;;;29.65;15.27;;;6.00;99.90;;;;;;5070065;28;20074;-48
2021/10/13 03:43:57;;;;;;;28.42;15.63;;;6.00;99.90;;;;;;5069790;28;20045;-47
2021/10/13 03:46:23;;;;;;;47.45;16.92;;;6.00;99.90;;;;;;5070312;28;20037;-48
2021/10/13 03:48:50;;;;;;;41.03;16.65;;;6.10;99.90;;;;;;5069365;28;20025;-46
2021/10/13 03:51:17;;;;;;;33.50;14.48;;;6.00;99.90;;;;;;5069972;28;20463;-45
2021/10/13 03:53:43;;;;;;;25.27;14.73;;;6.00;99.90;;;;;;5051690;28;20493;-46
2021/10/13 03:56:09;;;;;;;27.67;15.43;;;6.00;99.90;;;;;;5051763;28;20035;-47
2021/10/13 03:58:34;;;;;;;25.38;15.10;;;6.00;99.90;;;;;;5069328;28;20024;-49
2021/10/13 04:01:00;;;;;;;26.02;15.10;;;6.00;99.90;;;;;;5068887;28;20658;-46
2021/10/13 04:03:25;;;;;;;34.70;17.25;;;6.10;99.90;;;;;;5068533;28;20036;-45
2021/10/13 04:05:51;;;;;;;42.28;15.55;;;6.00;99.90;;;;;;5068904;28;20033;-47
2021/10/13 04:08:16;;;;;;;24.92;14.10;;;6.00;99.90;;;;;;5068291;28;20052;-46
2021/10/13 04:10:42;;;;;;;36.33;17.13;;;6.00;99.90;;;;;;5069424;28;20052;-46
2021/10/13 04:13:07;;;;;;;27.02;15.82;;;6.00;99.90;;;;;;5069392;28;20106;-46
2021/10/13 04:15:33;;;;;;;25.48;14.55;;;6.00;99.90;;;;;;5069396;28;20033;-48
2021/10/13 04:17:58;;;;;;;34.60;16.52;;;6.00;99.90;;;;;;5068445;28;20116;-46
2021/10/13 04:20:24;;;;;;;29.13;16.63;;;6.00;99.90;;;;;;5069394;28;20399;-46
2021/10/13 04:22:49;;;;;;;30.27;16.13;;;6.00;99.90;;;;;;5069121;28;20482;-48
2021/10/13 04:25:15;;;;;;;36.80;17.80;;;6.10;99.90;;;;;;5069075;28;20513;-47
2021/10/13 04:27:40;;;;;;;36.22;17.42;;;6.10;99.90;;;;;;5068429;28;20033;-46
2021/10/13 04:30:07;;;;;;;38.30;18.08;;;6.10;99.90;;;;;;5069407;28;20028;-49
2021/10/13 04:32:32;;;;;;;27.42;15.70;;;6.20;99.90;;;;;;5068846;28;20039;-48
2021/10/13 04:34:58;;;;;;;43.10;18.33;;;6.10;99.90;;;;;;5069074;28;20119;-47
2021/10/13 04:37:23;;;;;;;44.58;18.52;;;6.20;99.90;;;;;;5033506;28;20470;-47
2021/10/13 04:39:49;;;;;;;37.88;18.70;;;6.20;99.90;;;;;;5069305;28;20249;-47
2021/10/13 04:42:14;;;;;;;36.53;18.00;;;6.10;99.90;;;;;;5050966;28;20032;-46
2021/10/13 04:44:40;;;;;;;43.88;18.17;;;6.20;99.90;;;;;;5068691;28;20127;-47
2021/10/13 04:47:06;;;;;;;39.97;19.85;;;6.20;99.90;;;;;;5067667;28;20110;-48
2021/10/13 04:49:32;;;;;;;45.22;19.08;;;6.20;99.90;;;;;;5068773;28;20116;-46
2021/10/13 04:51:57;;;;;;;37.15;19.20;;;6.20;99.90;;;;;;5068483;28;20040;-46
2021/10/13 04:54:23;;;;;;;44.13;20.27;;;6.20;99.90;;;;;;5068922;28;20505;-48
2021/10/13 04:56:49;;;;;;;35.20;18.15;;;6.20;99.90;;;;;;5068502;28;20108;-46
2021/10/13 04:59:14;;;;;;;38.15;19.95;;;6.20;99.90;;;;;;5067472;28;20287;-47
2021/10/13 05:01:40;;;;;;;34.78;18.67;;;6.20;99.90;;;;;;5068972;28;20040;-51
2021/10/13 05:04:06;;;;;;;40.22;18.02;;;6.20;99.90;;;;;;5067517;28;20051;-49
2021/10/13 05:06:31;;;;;;;37.38;16.77;;;6.20;99.90;;;;;;5050534;28;20041;-48
2021/10/13 05:08:57;;;;;;;31.27;17.23;;;6.20;99.90;;;;;;5068574;28;20033;-48
2021/10/13 05:11:22;;;;;;;36.13;14.90;;;6.10;99.90;;;;;;5069255;28;20769;-46
2021/10/13 05:13:48;;;;;;;32.85;16.00;;;6.10;99.90;;;;;;5069633;28;20636;-47
2021/10/13 05:16:19;;;;;;;32.88;16.75;;;6.10;99.90;;;;;;5069179;28;20111;-47
2021/10/13 05:18:45;;;;;;;35.83;17.60;;;6.10;99.90;;;;;;5068175;28;20721;-46
2021/10/13 05:21:10;;;;;;;30.63;16.75;;;6.10;99.90;;;;;;5066827;28;20037;-47
2021/10/13 05:23:36;;;;;;;31.50;14.52;;;6.10;99.90;;;;;;5046374;28;20508;-48
2021/10/13 05:26:01;;;;;;;28.38;14.63;;;6.10;99.90;;;;;;5051500;28;20028;-47
2021/10/13 05:28:27;;;;;;;29.98;15.65;;;6.10;99.90;;;;;;5068474;28;20512;-48
2021/10/13 05:30:53;;;;;;;26.13;14.85;;;6.10;99.90;;;;;;5068581;28;20115;-49
2021/10/13 05:33:19;;;;;;;33.10;15.32;;;6.10;99.90;;;;;;5068970;28;20035;-48
2021/10/13 05:35:44;;;;;;;31.40;13.18;;;6.00;99.90;;;;;;5069401;28;20556;-50
2021/10/13 05:38:10;;;;;;;23.88;13.75;;;6.10;99.90;;;;;;5056629;28;20029;-50
2021/10/13 05:40:35;;;;;;;50.45;14.63;;;6.10;99.90;;;;;;5075314;28;20121;-50
2021/10/13 05:43:01;;;;;;;29.65;14.07;;;6.00;99.90;;;;;;5075848;28;20047;-50
2021/10/13 05:45:26;;;;;;;22.15;13.68;;;6.10;99.90;;;;;;5075711;28;20033;-48
2021/10/13 05:47:52;;;;;;;33.97;14.95;;;6.10;99.90;;;;;;5075240;28;20016;-49
2021/10/13 05:50:17;;;;;;;27.98;13.30;;;6.10;99.90;;;;;;5075695;28;20036;-48
2021/10/13 05:52:43;;;;;;;26.52;15.55;;;6.10;99.90;;;;;;5075526;28;20067;-50
2021/10/13 05:55:09;;;;;;;24.23;14.55;;;6.10;99.90;;;;;;5075687;28;20051;-51
2021/10/13 05:57:35;;;;;;;48.50;15.18;;;6.20;99.90;;;;;;5075118;28;20593;-51
2021/10/13 06:00:03;;;;;;;34.15;15.68;;;6.20;99.90;;;;;;5057631;28;20568;-49
2021/10/13 06:02:28;;;;;;;24.90;14.23;;;6.20;99.90;;;;;;5075189;28;20042;-49
2021/10/13 06:04:54;;;;;;;24.52;13.98;;;6.20;99.90;;;;;;5075543;28;20029;-50
2021/10/13 06:07:19;;;;;;;29.98;14.52;;;6.20;99.90;;;;;;5073620;28;20071;-51
2021/10/13 06:09:45;;;;;;;29.35;12.23;;;6.20;99.90;;;;;;5075425;28;20060;-49
2021/10/13 06:12:11;;;;;;;21.35;12.55;;;6.20;99.90;;;;;;5075208;28;20049;-48
2021/10/13 06:14:36;;;;;;;22.38;12.70;;;6.10;99.90;;;;;;5075358;28;20077;-51
2021/10/13 06:17:04;;;;;;;27.08;13.73;;;6.10;99.90;;;;;;5074841;28;20048;-49
2021/10/13 06:19:30;;;;;;;22.77;13.23;;;6.20;99.90;;;;;;5075117;28;20464;-51
2021/10/13 06:21:55;;;;;;;24.08;13.38;;;6.20;99.90;;;;;;5057495;28;20104;-48
2021/10/13 06:24:21;;;;;;;22.05;13.63;;;6.30;99.90;;;;;;5075055;28;20115;-53
2021/10/13 06:26:46;;;;;;;24.00;13.65;;;6.30;99.90;;;;;;5075534;28;20123;-49
2021/10/13 06:29:12;;;;;;;22.35;13.80;;;6.30;99.90;;;;;;5074644;28;20045;-50
2021/10/13 06:31:37;;;;;;;23.27;13.48;;;6.30;99.90;;;;;;5075483;28;20111;-51
2021/10/13 06:34:02;;;;;;;23.80;13.27;;;6.30;99.90;;;;;;5075539;28;20037;-50
2021/10/13 06:36:28;;;;;;;32.92;14.88;;;6.30;99.90;;;;;;5074861;28;20032;-49
2021/10/13 06:38:53;;;;;;;31.42;14.82;;;6.30;99.90;;;;;;5073963;28;20066;-47
2021/10/13 06:41:20;;;;;;;29.80;14.40;;;6.30;99.90;;;;;;5074917;28;20083;-50
2021/10/13 06:43:45;;;;;;;25.88;14.65;;;6.30;99.90;;;;;;5075515;28;20051;-48
2021/10/13 06:46:11;;;;;;;23.70;14.27;;;6.30;99.90;;;;;;5075306;28;20481;-47
2021/10/13 06:48:36;;;;;;;32.30;16.65;;;6.40;99.90;;;;;;5070571;28;20033;-50
2021/10/13 06:51:02;;;;;;;27.85;16.10;;;6.50;99.90;;;;;;5071890;28;20044;-48
2021/10/13 06:53:28;;;;;;;25.88;14.95;;;6.60;99.90;;;;;;5053387;28;20032;-50
2021/10/13 06:55:55;;;;;;;28.00;16.67;;;6.60;99.90;;;;;;5054027;28;20045;-47
2021/10/13 06:58:21;;;;;;;26.15;15.50;;;6.70;99.90;;;;;;5070969;28;20686;-48
2021/10/13 07:00:46;;;;;;;28.65;16.52;;;6.70;99.90;;;;;;5070912;28;20183;-49
2021/10/13 07:03:12;;;;;;;28.92;16.67;;;6.70;99.90;;;;;;5071239;28;20037;-48
2021/10/13 07:05:37;;;;;;;30.10;16.33;;;6.60;99.90;;;;;;5071034;28;20067;-50
2021/10/13 07:08:04;;;;;;;31.48;15.52;;;6.60;99.90;;;;;;5070063;28;20032;-49
2021/10/13 07:10:29;;;;;;;22.73;14.73;;;6.60;99.90;;;;;;5070900;28;20454;-49
2021/10/13 07:12:55;;;;;;;29.77;15.98;;;6.70;99.90;;;;;;5070150;28;20056;-49
2021/10/13 07:15:21;;;;;;;28.23;16.88;;;6.70;99.90;;;;;;5071343;28;20058;-48
2021/10/13 07:17:47;;;;;;;32.97;17.38;;;6.70;99.90;;;;;;5070544;28;20111;-50
2021/10/13 07:20:13;;;;;;;28.50;16.02;;;6.80;99.90;;;;;;5072396;28;20120;-47
2021/10/13 07:22:38;;;;;;;26.02;15.50;;;6.80;99.90;;;;;;5066787;28;20029;-49
2021/10/13 07:25:06;;;;;;;27.40;16.60;;;6.80;99.90;;;;;;5070989;28;20039;-47
2021/10/13 07:27:32;;;;;;;30.15;15.57;;;6.80;99.90;;;;;;5070271;28;20036;-48
2021/10/13 07:30:02;;;;;;;27.63;14.75;;;6.80;99.90;;;;;;5071400;28;20043;-48
2021/10/13 07:32:30;;;;;;;26.80;14.68;;;6.80;99.90;;;;;;5071032;28;20472;-48
2021/10/13 07:34:56;;;;;;;30.50;16.67;;;6.80;99.90;;;;;;5070856;28;20039;-48
2021/10/13 07:37:21;;;;;;;28.05;16.25;;;6.80;99.90;;;;;;5070222;28;20033;-50
2021/10/13 07:39:48;;;;;;;31.23;15.70;;;6.80;99.90;;;;;;5070489;28;20135;-49
2021/10/13 07:42:17;;;;;;;31.13;16.75;;;6.90;99.90;;;;;;5070407;28;20473;-49
2021/10/13 07:44:45;;;;;;;33.60;17.13;;;7.00;99.90;;;;;;5070632;28;20035;-48
2021/10/13 07:47:10;;;;;;;28.60;15.80;;;7.00;99.90;;;;;;5069357;28;20040;-50
2021/10/13 07:49:37;;;;;;;28.25;15.30;;;7.10;99.90;;;;;;5070173;28;20094;-48
2021/10/13 07:52:03;;;;;;;29.40;14.77;;;7.20;99.90;;;;;;5070504;28;20383;-50
2021/10/13 07:54:29;;;;;;;28.83;15.30;;;7.20;99.90;;;;;;5051753;28;20044;-51
2021/10/13 07:56:54;;;;;;;26.02;14.65;;;7.30;99.90;;;;;;5069334;28;20037;-49
2021/10/13 07:59:20;;;;;;;32.55;15.20;;;7.30;99.90;;;;;;5068280;28;20044;-50
2021/10/13 08:01:45;;;;;;;28.27;15.45;;;7.30;99.90;;;;;;5069952;28;20058;-47
2021/10/13 08:04:11;;;;;;;27.20;13.95;;;7.30;99.90;;;;;;5070157;28;20490;-47
2021/10/13 08:06:36;;;;;;;29.85;15.90;;;7.30;99.90;;;;;;5069589;28;20068;-47
2021/10/13 08:09:02;;;;;;;30.48;15.10;;;7.40;99.90;;;;;;5068537;28;20040;-50
2021/10/13 08:11:27;;;;;;;35.35;15.63;;;7.50;99.90;;;;;;5068517;28;20040;-48
2021/10/13 08:13:53;;;;;;;30.55;16.08;;;7.60;99.90;;;;;;5068809;28;20024;-49
2021/10/13 08:16:18;;;;;;;28.42;14.07;;;7.70;99.90;;;;;;5068723;28;20048;-50
2021/10/13 08:18:45;;;;;;;27.75;14.43;;;7.80;99.90;;;;;;5068757;28;20116;-49
2021/10/13 08:21:11;;;;;;;26.60;13.93;;;7.90;99.90;;;;;;5068574;28;20474;-49
2021/10/13 08:23:36;;;;;;;30.00;14.88;;;8.00;99.90;;;;;;5068908;28;20032;-48
2021/10/13 08:26:02;;;;;;;24.67;13.30;;;8.10;99.90;;;;;;5068725;28;20039;-47
2021/10/13 08:28:29;;;;;;;24.83;12.70;;;8.10;99.90;;;;;;5067546;28;20111;-46
2021/10/13 08:30:56;;;;;;;25.95;11.77;;;8.30;99.90;;;;;;5068994;28;20020;-48
2021/10/13 08:33:22;;;;;;;26.30;13.80;;;8.40;99.90;;;;;;5068303;28;20025;-48
2021/10/13 08:35:47;;;;;;;26.10;13.30;;;8.50;99.90;;;;;;5069157;28;20036;-47
2021/10/13 08:38:13;;;;;;;24.52;13.23;;;8.60;99.90;;;;;;5068250;28;20036;-48
2021/10/13 08:40:40;;;;;;;26.02;13.77;;;8.90;99.90;;;;;;5069031;28;20493;-50
2021/10/13 08:43:06;;;;;;;26.80;13.93;;;9.10;99.90;;;;;;5067578;28;20067;-48
2021/10/13 08:45:34;;;;;;;23.50;13.30;;;9.20;99.90;;;;;;5069093;28;20020;-47
2021/10/13 08:48:01;;;;;;;21.48;11.82;;;9.30;99.90;;;;;;5048202;28;20093;-48
2021/10/13 08:50:28;;;;;;;17.80;11.30;;;9.40;99.90;;;;;;5068727;28;20036;-46
2021/10/13 08:53:11;;;;;;;26.77;13.00;;;9.40;99.90;;;;;;5050771;28;20407;-48
2021/10/13 08:55:38;;;;;;;25.58;13.35;;;9.40;99.90;;;;;;5069073;28;20033;-48
2021/10/13 08:58:13;;;;;;;25.98;13.35;;;9.40;99.90;;;;;;5068893;28;20539;-48
2021/10/13 09:00:40;;;;;;;24.02;12.63;;;9.40;99.90;;;;;;5069017;28;20051;-49
2021/10/13 09:03:06;;;;;;;22.05;12.45;;;9.50;99.90;;;;;;5068261;28;20047;-49
2021/10/13 09:05:31;;;;;;;25.70;13.52;;;9.50;99.90;;;;;;5069070;28;20025;-48
2021/10/13 09:07:57;;;;;;;21.92;12.32;;;9.60;99.90;;;;;;5067649;28;20111;-48
2021/10/13 09:10:34;;;;;;;27.48;14.52;;;9.70;99.90;;;;;;5068035;28;20131;-49
2021/10/13 09:13:02;;;;;;;27.50;14.57;;;9.40;99.90;;;;;;5050414;28;20052;-48
2021/10/13 09:15:30;;;;;;;24.35;14.07;;;9.60;99.90;;;;;;5068755;28;20044;-46
2021/10/13 09:18:04;;;;;;;22.77;11.85;;;9.50;99.90;;;;;;5068425;28;20028;-49
2021/10/13 09:20:32;;;;;;;29.52;15.98;;;9.70;99.90;;;;;;5050201;28;20037;-49
2021/10/13 09:23:05;;;;;;;32.50;15.15;;;9.70;99.90;;;;;;5068374;28;20052;-49
2021/10/13 09:25:32;;;;;;;27.55;14.43;;;9.80;99.90;;;;;;5068002;28;20043;-48
2021/10/13 09:27:58;;;;;;;27.63;13.60;;;10.00;99.90;;;;;;5049196;28;20025;-49
2021/10/13 09:30:41;;;;;;;31.13;15.50;;;11.00;99.90;;;;;;5068476;28;20098;-48
2021/10/13 09:33:15;;;;;;;27.15;15.60;;;11.20;99.90;;;;;;5069275;28;20112;-49
2021/10/13 09:35:52;;;;;;;30.52;16.05;;;11.10;99.90;;;;;;5068887;28;20021;-50
2021/10/13 09:38:24;;;;;;;25.02;15.10;;;11.30;99.90;;;;;;5067776;28;20107;-50
2021/10/13 09:40:57;;;;;;;22.10;13.45;;;11.50;99.90;;;;;;5068375;28;20032;-50
2021/10/13 09:43:30;;;;;;;20.80;12.55;;;11.70;99.90;;;;;;5068048;28;20484;-50
2021/10/13 09:46:04;;;;;;;20.90;13.02;;;11.70;99.90;;;;;;5068679;28;20094;-48
2021/10/13 09:48:30;;;;;;;19.63;11.50;;;11.50;99.90;;;;;;5067726;28;20158;-46
2021/10/13 09:50:55;;;;;;;24.20;12.10;;;11.30;99.90;;;;;;5068147;28;20752;-48
2021/10/13 09:53:25;;;;;;;24.92;12.52;;;11.60;99.90;;;;;;5064888;28;20064;-48
2021/10/13 09:55:51;;;;;;;20.35;11.23;;;12.00;99.90;;;;;;5066774;28;20175;-50
2021/10/13 09:58:28;;;;;;;17.40;10.80;;;12.10;99.90;;;;;;5066365;28;20027;-48
2021/10/13 10:01:11;;;;;;;19.55;11.73;;;11.90;99.90;;;;;;5065662;28;20041;-47
2021/10/13 10:03:40;;;;;;;18.27;10.95;;;12.10;99.90;;;;;;5066925;28;20024;-47
2021/10/13 10:06:07;;;;;;;20.02;11.43;;;13.10;99.90;;;;;;5047908;28;20086;-50
2021/10/13 10:08:57;;;;;;;18.98;10.82;;;14.70;99.90;;;;;;5067559;28;20106;-49
2021/10/13 10:11:31;;;;;;;19.85;11.02;;;15.50;99.90;;;;;;5068538;28;20039;-50
2021/10/13 10:13:58;;;;;;;19.40;11.15;;;15.70;99.90;;;;;;5068505;28;20067;-50
2021/10/13 10:16:28;;;;;;;17.50;11.02;;;15.00;99.90;;;;;;5068456;28;20035;-50
2021/10/13 10:18:54;;;;;;;17.50;11.23;;;14.50;99.90;;;;;;5067796;28;20025;-50
2021/10/13 10:21:21;;;;;;;19.17;12.20;;;14.60;99.90;;;;;;5059294;28;20512;-51
2021/10/13 10:23:51;;;;;;;21.95;12.88;;;15.30;99.90;;;;;;5054158;28;20436;-51
2021/10/13 10:26:25;;;;;;;17.88;11.40;;;15.90;99.90;;;;;;5054268;28;20071;-50
2021/10/13 10:28:54;;;;;;;19.10;10.98;;;16.90;99.70;;;;;;5070468;28;20118;-50
2021/10/13 10:31:28;;;;;;;18.75;12.63;;;17.60;97.40;;;;;;5072175;28;20075;-50
2021/10/13 10:34:02;;;;;;;18.75;11.68;;;17.20;95.80;;;;;;5072270;28;20039;-50
2021/10/13 10:36:34;;;;;;;16.55;10.73;;;16.80;97.40;;;;;;5072330;28;20040;-49
2021/10/13 10:39:10;;;;;;;18.88;12.40;;;16.80;97.00;;;;;;5068814;28;20040;-51
2021/10/13 10:41:55;;;;;;;15.75;11.00;;;16.70;97.70;;;;;;5070914;28;20033;-47
2021/10/13 10:44:28;;;;;;;21.10;12.75;;;16.30;98.30;;;;;;5071614;28;20037;-48
2021/10/13 10:47:09;;;;;;;19.90;12.95;;;15.90;98.20;;;;;;5071950;28;20033;-49
2021/10/13 10:49:55;;;;;;;18.85;12.20;;;15.60;97.90;;;;;;5071960;28;20044;-48
2021/10/13 10:52:25;;;;;;;19.92;11.98;;;15.20;99.60;;;;;;5071904;28;20029;-48
2021/10/13 10:54:57;;;;;;;25.00;13.30;;;14.80;99.90;;;;;;5072649;28;20577;-47
2021/10/13 10:57:34;;;;;;;21.20;13.20;;;15.20;99.90;;;;;;5071087;28;20568;-48
2021/10/13 11:00:03;;;;;;;20.38;11.73;;;16.10;99.90;;;;;;5070244;28;20371;-49
2021/10/13 11:02:30;;;;;;;20.52;12.40;;;16.90;98.50;;;;;;5069979;28;20052;-49
2021/10/13 11:05:08;;;;;;;14.95;10.85;;;17.70;96.20;;;;;;5069803;28;20055;-49
2021/10/13 11:07:35;;;;;;;15.27;9.75;;;18.80;95.90;;;;;;5049843;28;20130;-50
2021/10/13 11:10:08;;;;;;;17.58;10.90;;;20.20;92.30;;;;;;5070877;28;20055;-49
2021/10/13 11:12:51;;;;;;;12.13;8.50;;;21.30;88.00;;;;;;5068551;28;20045;-50
2021/10/13 11:15:20;;;;;;;12.77;7.68;;;22.20;83.20;;;;;;5063243;28;20119;-50
2021/10/13 11:17:45;;;;;;;14.88;10.35;;;21.90;81.30;;;;;;5051555;28;20024;-50
2021/10/13 11:20:13;;;;;;;9.73;8.55;;;20.60;80.90;;;;;;5070577;28;20537;-50
2021/10/13 11:22:39;;;;;;;17.58;10.10;;;19.60;85.80;;;;;;5069870;28;20032;-47
2021/10/13 11:25:22;;;;;;;15.75;10.65;;;18.60;87.10;;;;;;5066749;28;20046;-49
2021/10/13 11:28:02;;;;;;;19.40;12.35;;;17.60;90.10;;;;;;5066746;28;20158;-49
2021/10/13 11:30:30;;;;;;;20.45;13.35;;;16.50;92.70;;;;;;5066159;28;20034;-51
2021/10/13 11:32:56;;;;;;;15.80;11.52;;;16.20;94.50;;;;;;5067324;28;20060;-48
2021/10/13 11:35:22;;;;;;;13.23;9.90;;;16.30;94.70;;;;;;5069573;28;20058;-47
2021/10/13 11:37:49;;;;;;;14.30;11.55;;;16.30;96.00;;;;;;5068093;28;20028;-49
2021/10/13 11:40:17;;;;;;;14.10;9.52;;;17.40;95.50;;;;;;5070321;28;20032;-49
2021/10/13 11:42:43;;;;;;;17.60;10.10;;;17.80;94.10;;;;;;5069948;28;20115;-49
2021/10/13 11:45:22;;;;;;;15.13;10.15;;;17.70;93.30;;;;;;5069924;28;20178;-49
2021/10/13 11:47:48;;;;;;;17.05;10.82;;;17.80;94.00;;;;;;5069418;28;20187;-50
2021/10/13 11:50:19;;;;;;;13.35;9.23;;;17.60;92.10;;;;;;5070085;28;20063;-48
2021/10/13 11:52:52;;;;;;;13.93;9.73;;;18.30;91.80;;;;;;5069779;28;20029;-48
2021/10/13 11:55:19;;;;;;;10.27;7.43;;;19.50;90.20;;;;;;5062130;28;20059;-48
2021/10/13 11:57:57;;;;;;;14.90;7.15;;;19.70;90.20;;;;;;5069280;28;20024;-51
2021/10/13 12:00:30;;;;;;;11.05;6.50;;;20.30;87.10;;;;;;5070300;28;20420;-49
2021/10/13 12:02:59;;;;;;;10.13;5.75;;;21.20;86.90;;;;;;5067699;28;20032;-49
2021/10/13 12:05:51;;;;;;;12.65;5.20;;;21.90;79.40;;;;;;5070037;28;20613;-49
2021/10/13 12:08:24;;;;;;;8.65;5.32;;;21.80;77.50;;;;;;5053897;28;20048;-48
2021/10/13 12:11:11;;;;;;;9.68;4.88;;;22.00;77.50;;;;;;5069677;28;20517;-49
2021/10/13 12:13:42;;;;;;;12.40;5.10;;;20.50;77.30;;;;;;5067068;28;20119;-50
2021/10/13 12:16:10;;;;;;;10.27;5.15;;;19.20;81.10;;;;;;5050645;28;20036;-47
2021/10/13 12:18:45;;;;;;;10.35;6.05;;;18.30;84.70;;;;;;5068199;28;20047;-50
2021/10/13 12:21:17;;;;;;;9.48;5.22;;;17.50;88.50;;;;;;5066163;28;20039;-48
2021/10/13 12:23:44;;;;;;;6.95;4.82;;;16.80;90.90;;;;;;5069721;28;20024;-50
2021/10/13 12:26:23;;;;;;;7.70;4.90;;;16.50;91.60;;;;;;5068972;28;20044;-47
2021/10/13 12:28:51;;;;;;;6.82;3.38;;;16.20;92.20;;;;;;5068007;28;20036;-51
2021/10/13 12:31:20;;;;;;;6.68;4.22;;;16.10;93.20;;;;;;5068935;28;20133;-50
2021/10/13 12:33:53;;;;;;;7.70;3.50;;;16.10;93.80;;;;;;5066779;28;20086;-48
2021/10/13 12:36:29;;;;;;;6.90;2.88;;;16.10;92.90;;;;;;5068997;28;20033;-47
2021/10/13 12:39:08;;;;;;;7.32;3.00;;;15.80;93.20;;;;;;5065817;28;20044;-51
2021/10/13 12:41:37;;;;;;;5.35;2.38;;;15.50;93.10;;;;;;5066477;28;20119;-46
2021/10/13 12:44:23;;;;;;;4.60;1.98;;;15.20;94.00;;;;;;5068963;28;20029;-48